sensor_id;sensor_type;location;lat;lon;timestamp;P1;durP1;ratioP1;P2;durP2;ratioP2
45694;SDS011;31408;45.468;9.124;2023-11-19T00:00:47;17.35;;;8.60;;
45694;SDS011;31408;45.468;9.124;2023-11-19T00:03:12;16.00;;;7.50;;
45694;SDS011;31408;45.468;9.124;2023-11-19T00:05:38;14.38;;;6.80;;
45694;SDS011;31408;45.468;9.124;2023-11-19T00:08:03;19.13;;;8.38;;
45694;SDS011;31408;45.468;9.124;2023-11-19T00:10:31;14.27;;;7.30;;
45694;SDS011;31408;45.468;9.124;2023-11-19T00:12:56;20.88;;;9.05;;
45694;SDS011;31408;45.468;9.124;2023-11-19T00:15:22;16.25;;;9.20;;
45694;SDS011;31408;45.468;9.124;2023-11-19T00:17:49;18.67;;;7.18;;
45694;SDS011;31408;45.468;9.124;2023-11-19T00:20:15;17.83;;;6.82;;
45694;SDS011;31408;45.468;9.124;2023-11-19T00:22:41;19.05;;;8.68;;
45694;SDS011;31408;45.468;9.124;2023-11-19T00:25:07;16.88;;;8.00;;
45694;SDS011;31408;45.468;9.124;2023-11-19T00:27:33;18.83;;;8.35;;
45694;SDS011;31408;45.468;9.124;2023-11-19T00:29:58;15.93;;;7.95;;
45694;SDS011;31408;45.468;9.124;2023-11-19T00:32:23;16.75;;;8.40;;
45694;SDS011;31408;45.468;9.124;2023-11-19T00:34:49;18.15;;;7.82;;
45694;SDS011;31408;45.468;9.124;2023-11-19T00:37:14;17.27;;;8.30;;
45694;SDS011;31408;45.468;9.124;2023-11-19T00:39:40;16.27;;;8.30;;
45694;SDS011;31408;45.468;9.124;2023-11-19T00:42:06;15.00;;;7.40;;
45694;SDS011;31408;45.468;9.124;2023-11-19T00:44:31;18.83;;;8.48;;
45694;SDS011;31408;45.468;9.124;2023-11-19T00:46:56;16.55;;;7.25;;
45694;SDS011;31408;45.468;9.124;2023-11-19T00:49:22;13.82;;;6.97;;
45694;SDS011;31408;45.468;9.124;2023-11-19T00:51:47;13.75;;;6.93;;
45694;SDS011;31408;45.468;9.124;2023-11-19T00:54:12;15.27;;;7.35;;
45694;SDS011;31408;45.468;9.124;2023-11-19T00:56:37;15.48;;;7.68;;
45694;SDS011;31408;45.468;9.124;2023-11-19T00:59:03;16.45;;;7.35;;
45694;SDS011;31408;45.468;9.124;2023-11-19T01:01:29;15.95;;;9.18;;
45694;SDS011;31408;45.468;9.124;2023-11-19T01:03:55;16.70;;;7.55;;
45694;SDS011;31408;45.468;9.124;2023-11-19T01:06:31;20.10;;;9.23;;
45694;SDS011;31408;45.468;9.124;2023-11-19T01:08:57;16.55;;;7.72;;
45694;SDS011;31408;45.468;9.124;2023-11-19T01:11:23;14.95;;;7.50;;
45694;SDS011;31408;45.468;9.124;2023-11-19T01:13:49;18.00;;;7.80;;
45694;SDS011;31408;45.468;9.124;2023-11-19T01:16:16;19.05;;;9.60;;
45694;SDS011;31408;45.468;9.124;2023-11-19T01:18:41;20.88;;;8.88;;
45694;SDS011;31408;45.468;9.124;2023-11-19T01:21:07;15.13;;;6.97;;
45694;SDS011;31408;45.468;9.124;2023-11-19T01:23:32;21.88;;;9.40;;
45694;SDS011;31408;45.468;9.124;2023-11-19T01:25:58;17.83;;;8.73;;
45694;SDS011;31408;45.468;9.124;2023-11-19T01:28:23;15.55;;;7.03;;
45694;SDS011;31408;45.468;9.124;2023-11-19T01:30:52;15.23;;;7.28;;
45694;SDS011;31408;45.468;9.124;2023-11-19T01:33:17;15.20;;;7.47;;
45694;SDS011;31408;45.468;9.124;2023-11-19T01:35:43;19.27;;;8.32;;
45694;SDS011;31408;45.468;9.124;2023-11-19T01:38:08;13.98;;;7.22;;
45694;SDS011;31408;45.468;9.124;2023-11-19T01:40:34;14.90;;;7.78;;
45694;SDS011;31408;45.468;9.124;2023-11-19T01:42:59;18.20;;;8.93;;
45694;SDS011;31408;45.468;9.124;2023-11-19T01:45:27;20.67;;;9.73;;
45694;SDS011;31408;45.468;9.124;2023-11-19T01:47:53;23.70;;;8.38;;
45694;SDS011;31408;45.468;9.124;2023-11-19T01:50:18;19.20;;;8.40;;
45694;SDS011;31408;45.468;9.124;2023-11-19T01:52:44;16.35;;;8.05;;
45694;SDS011;31408;45.468;9.124;2023-11-19T01:55:10;17.98;;;7.50;;
45694;SDS011;31408;45.468;9.124;2023-11-19T01:57:36;16.83;;;7.63;;
45694;SDS011;31408;45.468;9.124;2023-11-19T02:00:02;12.55;;;6.78;;
45694;SDS011;31408;45.468;9.124;2023-11-19T02:02:39;15.88;;;6.90;;
45694;SDS011;31408;45.468;9.124;2023-11-19T02:05:05;15.85;;;7.88;;
45694;SDS011;31408;45.468;9.124;2023-11-19T02:07:31;18.15;;;8.65;;
45694;SDS011;31408;45.468;9.124;2023-11-19T02:09:56;15.25;;;8.50;;
45694;SDS011;31408;45.468;9.124;2023-11-19T02:12:24;18.25;;;8.23;;
45694;SDS011;31408;45.468;9.124;2023-11-19T02:14:50;13.98;;;7.38;;
45694;SDS011;31408;45.468;9.124;2023-11-19T02:17:28;14.50;;;6.15;;
45694;SDS011;31408;45.468;9.124;2023-11-19T02:19:54;14.35;;;8.57;;
45694;SDS011;31408;45.468;9.124;2023-11-19T02:22:19;17.83;;;7.75;;
45694;SDS011;31408;45.468;9.124;2023-11-19T02:24:45;15.68;;;8.38;;
45694;SDS011;31408;45.468;9.124;2023-11-19T02:27:15;20.65;;;7.97;;
45694;SDS011;31408;45.468;9.124;2023-11-19T02:29:43;18.08;;;8.35;;
45694;SDS011;31408;45.468;9.124;2023-11-19T02:32:08;18.50;;;8.30;;
45694;SDS011;31408;45.468;9.124;2023-11-19T02:34:34;16.30;;;7.47;;
45694;SDS011;31408;45.468;9.124;2023-11-19T02:37:00;14.82;;;7.82;;
45694;SDS011;31408;45.468;9.124;2023-11-19T02:39:26;16.02;;;8.82;;
45694;SDS011;31408;45.468;9.124;2023-11-19T02:41:51;18.08;;;7.63;;
45694;SDS011;31408;45.468;9.124;2023-11-19T02:44:18;14.68;;;7.50;;
45694;SDS011;31408;45.468;9.124;2023-11-19T02:46:43;15.05;;;7.88;;
45694;SDS011;31408;45.468;9.124;2023-11-19T02:49:08;17.85;;;8.57;;
45694;SDS011;31408;45.468;9.124;2023-11-19T02:51:34;19.73;;;9.38;;
45694;SDS011;31408;45.468;9.124;2023-11-19T02:54:00;15.55;;;7.28;;
45694;SDS011;31408;45.468;9.124;2023-11-19T02:56:25;17.48;;;8.65;;
45694;SDS011;31408;45.468;9.124;2023-11-19T02:58:51;16.27;;;8.18;;
45694;SDS011;31408;45.468;9.124;2023-11-19T03:01:23;16.65;;;8.20;;
45694;SDS011;31408;45.468;9.124;2023-11-19T03:03:54;23.92;;;10.52;;
45694;SDS011;31408;45.468;9.124;2023-11-19T03:06:20;16.25;;;8.25;;
45694;SDS011;31408;45.468;9.124;2023-11-19T03:08:46;19.83;;;9.02;;
45694;SDS011;31408;45.468;9.124;2023-11-19T03:11:12;22.52;;;10.77;;
45694;SDS011;31408;45.468;9.124;2023-11-19T03:13:37;18.10;;;8.98;;
45694;SDS011;31408;45.468;9.124;2023-11-19T03:16:03;21.73;;;11.05;;
45694;SDS011;31408;45.468;9.124;2023-11-19T03:18:28;18.88;;;8.48;;
45694;SDS011;31408;45.468;9.124;2023-11-19T03:20:53;17.35;;;8.88;;
45694;SDS011;31408;45.468;9.124;2023-11-19T03:23:19;20.08;;;9.18;;
45694;SDS011;31408;45.468;9.124;2023-11-19T03:25:44;16.70;;;8.45;;
45694;SDS011;31408;45.468;9.124;2023-11-19T03:28:10;20.65;;;8.55;;
45694;SDS011;31408;45.468;9.124;2023-11-19T03:30:36;15.32;;;8.02;;
45694;SDS011;31408;45.468;9.124;2023-11-19T03:33:01;20.92;;;8.65;;
45694;SDS011;31408;45.468;9.124;2023-11-19T03:35:27;22.38;;;9.82;;
45694;SDS011;31408;45.468;9.124;2023-11-19T03:37:53;16.98;;;7.93;;
45694;SDS011;31408;45.468;9.124;2023-11-19T03:40:18;16.48;;;8.43;;
45694;SDS011;31408;45.468;9.124;2023-11-19T03:42:44;15.20;;;8.70;;
45694;SDS011;31408;45.468;9.124;2023-11-19T03:45:10;17.38;;;8.65;;
45694;SDS011;31408;45.468;9.124;2023-11-19T03:47:35;13.95;;;8.18;;
45694;SDS011;31408;45.468;9.124;2023-11-19T03:50:01;20.75;;;9.60;;
45694;SDS011;31408;45.468;9.124;2023-11-19T03:52:27;15.85;;;8.57;;
45694;SDS011;31408;45.468;9.124;2023-11-19T03:54:52;21.45;;;9.30;;
45694;SDS011;31408;45.468;9.124;2023-11-19T03:57:18;19.88;;;9.85;;
45694;SDS011;31408;45.468;9.124;2023-11-19T03:59:43;16.55;;;9.38;;
45694;SDS011;31408;45.468;9.124;2023-11-19T04:02:09;19.92;;;9.10;;
45694;SDS011;31408;45.468;9.124;2023-11-19T04:04:35;18.35;;;9.80;;
45694;SDS011;31408;45.468;9.124;2023-11-19T04:07:00;17.17;;;9.13;;
45694;SDS011;31408;45.468;9.124;2023-11-19T04:09:28;22.85;;;9.55;;
45694;SDS011;31408;45.468;9.124;2023-11-19T04:11:53;14.52;;;7.25;;
45694;SDS011;31408;45.468;9.124;2023-11-19T04:14:19;19.45;;;8.95;;
45694;SDS011;31408;45.468;9.124;2023-11-19T04:16:44;14.75;;;8.02;;
45694;SDS011;31408;45.468;9.124;2023-11-19T04:19:10;19.45;;;9.20;;
45694;SDS011;31408;45.468;9.124;2023-11-19T04:21:36;15.05;;;7.97;;
45694;SDS011;31408;45.468;9.124;2023-11-19T04:24:01;25.95;;;10.35;;
45694;SDS011;31408;45.468;9.124;2023-11-19T04:26:26;15.73;;;7.20;;
45694;SDS011;31408;45.468;9.124;2023-11-19T04:28:52;16.20;;;8.55;;
45694;SDS011;31408;45.468;9.124;2023-11-19T04:31:19;17.73;;;8.23;;
45694;SDS011;31408;45.468;9.124;2023-11-19T04:33:44;18.55;;;8.45;;
45694;SDS011;31408;45.468;9.124;2023-11-19T04:36:10;19.00;;;9.95;;
45694;SDS011;31408;45.468;9.124;2023-11-19T04:38:35;15.02;;;7.85;;
45694;SDS011;31408;45.468;9.124;2023-11-19T04:41:02;21.55;;;7.78;;
45694;SDS011;31408;45.468;9.124;2023-11-19T04:43:27;17.63;;;8.32;;
45694;SDS011;31408;45.468;9.124;2023-11-19T04:45:53;17.15;;;8.05;;
45694;SDS011;31408;45.468;9.124;2023-11-19T04:48:18;17.38;;;8.15;;
45694;SDS011;31408;45.468;9.124;2023-11-19T04:50:44;19.25;;;8.68;;
45694;SDS011;31408;45.468;9.124;2023-11-19T04:53:09;21.52;;;8.95;;
45694;SDS011;31408;45.468;9.124;2023-11-19T04:55:35;19.25;;;8.50;;
45694;SDS011;31408;45.468;9.124;2023-11-19T04:58:00;20.98;;;8.75;;
45694;SDS011;31408;45.468;9.124;2023-11-19T05:00:26;15.30;;;8.13;;
45694;SDS011;31408;45.468;9.124;2023-11-19T05:02:51;13.98;;;7.97;;
45694;SDS011;31408;45.468;9.124;2023-11-19T05:05:16;13.07;;;6.80;;
45694;SDS011;31408;45.468;9.124;2023-11-19T05:07:42;19.92;;;9.35;;
45694;SDS011;31408;45.468;9.124;2023-11-19T05:10:08;15.70;;;7.88;;
45694;SDS011;31408;45.468;9.124;2023-11-19T05:12:33;17.98;;;9.40;;
45694;SDS011;31408;45.468;9.124;2023-11-19T05:14:59;18.42;;;8.35;;
45694;SDS011;31408;45.468;9.124;2023-11-19T05:17:25;13.32;;;7.55;;
45694;SDS011;31408;45.468;9.124;2023-11-19T05:19:50;10.32;;;6.95;;
45694;SDS011;31408;45.468;9.124;2023-11-19T05:22:16;14.13;;;7.57;;
45694;SDS011;31408;45.468;9.124;2023-11-19T05:24:42;15.55;;;8.07;;
45694;SDS011;31408;45.468;9.124;2023-11-19T05:27:07;15.98;;;8.23;;
45694;SDS011;31408;45.468;9.124;2023-11-19T05:29:33;16.95;;;8.55;;
45694;SDS011;31408;45.468;9.124;2023-11-19T05:31:58;15.65;;;8.00;;
45694;SDS011;31408;45.468;9.124;2023-11-19T05:34:24;16.05;;;8.45;;
45694;SDS011;31408;45.468;9.124;2023-11-19T05:36:50;14.63;;;7.75;;
45694;SDS011;31408;45.468;9.124;2023-11-19T05:39:16;16.77;;;7.53;;
45694;SDS011;31408;45.468;9.124;2023-11-19T05:41:41;17.52;;;7.38;;
45694;SDS011;31408;45.468;9.124;2023-11-19T05:44:06;10.77;;;7.13;;
45694;SDS011;31408;45.468;9.124;2023-11-19T05:46:32;15.25;;;7.32;;
45694;SDS011;31408;45.468;9.124;2023-11-19T05:48:57;15.68;;;7.43;;
45694;SDS011;31408;45.468;9.124;2023-11-19T05:51:23;17.23;;;7.00;;
45694;SDS011;31408;45.468;9.124;2023-11-19T05:53:49;12.55;;;7.18;;
45694;SDS011;31408;45.468;9.124;2023-11-19T05:56:15;16.40;;;8.35;;
45694;SDS011;31408;45.468;9.124;2023-11-19T05:58:46;17.55;;;8.57;;
45694;SDS011;31408;45.468;9.124;2023-11-19T06:01:13;16.48;;;8.52;;
45694;SDS011;31408;45.468;9.124;2023-11-19T06:03:38;19.70;;;9.30;;
45694;SDS011;31408;45.468;9.124;2023-11-19T06:06:04;15.88;;;8.38;;
45694;SDS011;31408;45.468;9.124;2023-11-19T06:08:30;16.25;;;8.98;;
45694;SDS011;31408;45.468;9.124;2023-11-19T06:10:55;19.27;;;7.63;;
45694;SDS011;31408;45.468;9.124;2023-11-19T06:13:21;19.70;;;8.15;;
45694;SDS011;31408;45.468;9.124;2023-11-19T06:15:46;14.48;;;7.03;;
45694;SDS011;31408;45.468;9.124;2023-11-19T06:18:12;15.60;;;7.40;;
45694;SDS011;31408;45.468;9.124;2023-11-19T06:20:37;12.52;;;7.32;;
45694;SDS011;31408;45.468;9.124;2023-11-19T06:23:02;11.70;;;6.40;;
45694;SDS011;31408;45.468;9.124;2023-11-19T06:25:28;11.55;;;6.25;;
45694;SDS011;31408;45.468;9.124;2023-11-19T06:27:53;14.20;;;5.95;;
45694;SDS011;31408;45.468;9.124;2023-11-19T06:30:19;12.23;;;6.22;;
45694;SDS011;31408;45.468;9.124;2023-11-19T06:32:45;13.68;;;6.70;;
45694;SDS011;31408;45.468;9.124;2023-11-19T06:35:11;14.43;;;6.53;;
45694;SDS011;31408;45.468;9.124;2023-11-19T06:37:38;12.50;;;6.57;;
45694;SDS011;31408;45.468;9.124;2023-11-19T06:40:04;13.57;;;6.18;;
45694;SDS011;31408;45.468;9.124;2023-11-19T06:42:30;12.95;;;6.57;;
45694;SDS011;31408;45.468;9.124;2023-11-19T06:44:55;14.95;;;7.35;;
45694;SDS011;31408;45.468;9.124;2023-11-19T06:47:22;12.15;;;6.32;;
45694;SDS011;31408;45.468;9.124;2023-11-19T06:49:47;12.10;;;6.25;;
45694;SDS011;31408;45.468;9.124;2023-11-19T06:52:13;13.25;;;7.03;;
45694;SDS011;31408;45.468;9.124;2023-11-19T06:54:39;15.25;;;6.85;;
45694;SDS011;31408;45.468;9.124;2023-11-19T06:57:04;15.63;;;7.65;;
45694;SDS011;31408;45.468;9.124;2023-11-19T06:59:30;12.15;;;6.70;;
45694;SDS011;31408;45.468;9.124;2023-11-19T07:01:56;17.80;;;8.45;;
45694;SDS011;31408;45.468;9.124;2023-11-19T07:04:21;13.57;;;6.95;;
45694;SDS011;31408;45.468;9.124;2023-11-19T07:06:46;17.27;;;7.88;;
45694;SDS011;31408;45.468;9.124;2023-11-19T07:09:13;15.43;;;7.15;;
45694;SDS011;31408;45.468;9.124;2023-11-19T07:11:39;16.83;;;7.55;;
45694;SDS011;31408;45.468;9.124;2023-11-19T07:14:05;12.93;;;7.18;;
45694;SDS011;31408;45.468;9.124;2023-11-19T07:16:32;14.50;;;7.20;;
45694;SDS011;31408;45.468;9.124;2023-11-19T07:18:57;15.98;;;7.22;;
45694;SDS011;31408;45.468;9.124;2023-11-19T07:21:24;15.05;;;7.00;;
45694;SDS011;31408;45.468;9.124;2023-11-19T07:23:49;11.13;;;5.97;;
45694;SDS011;31408;45.468;9.124;2023-11-19T07:26:15;15.75;;;7.28;;
45694;SDS011;31408;45.468;9.124;2023-11-19T07:28:40;14.20;;;7.13;;
45694;SDS011;31408;45.468;9.124;2023-11-19T07:31:06;16.98;;;6.68;;
45694;SDS011;31408;45.468;9.124;2023-11-19T07:33:34;15.88;;;6.32;;
45694;SDS011;31408;45.468;9.124;2023-11-19T07:35:59;14.55;;;6.45;;
45694;SDS011;31408;45.468;9.124;2023-11-19T07:38:25;10.13;;;6.35;;
45694;SDS011;31408;45.468;9.124;2023-11-19T07:40:50;12.82;;;6.40;;
45694;SDS011;31408;45.468;9.124;2023-11-19T07:43:15;11.50;;;5.60;;
45694;SDS011;31408;45.468;9.124;2023-11-19T07:45:41;15.68;;;6.45;;
45694;SDS011;31408;45.468;9.124;2023-11-19T07:48:09;16.08;;;7.82;;
45694;SDS011;31408;45.468;9.124;2023-11-19T07:50:34;11.23;;;5.63;;
45694;SDS011;31408;45.468;9.124;2023-11-19T07:52:59;13.70;;;6.18;;
45694;SDS011;31408;45.468;9.124;2023-11-19T07:55:25;11.20;;;5.90;;
45694;SDS011;31408;45.468;9.124;2023-11-19T07:57:50;17.35;;;7.30;;
45694;SDS011;31408;45.468;9.124;2023-11-19T08:00:16;14.52;;;6.30;;
45694;SDS011;31408;45.468;9.124;2023-11-19T08:02:42;17.80;;;6.45;;
45694;SDS011;31408;45.468;9.124;2023-11-19T08:05:07;13.65;;;6.72;;
45694;SDS011;31408;45.468;9.124;2023-11-19T08:07:32;16.67;;;6.55;;
45694;SDS011;31408;45.468;9.124;2023-11-19T08:09:58;15.50;;;7.00;;
45694;SDS011;31408;45.468;9.124;2023-11-19T08:12:23;14.73;;;6.70;;
45694;SDS011;31408;45.468;9.124;2023-11-19T08:14:48;13.23;;;6.57;;
45694;SDS011;31408;45.468;9.124;2023-11-19T08:17:14;9.55;;;5.90;;
45694;SDS011;31408;45.468;9.124;2023-11-19T08:19:39;13.93;;;6.68;;
45694;SDS011;31408;45.468;9.124;2023-11-19T08:22:05;11.30;;;6.18;;
45694;SDS011;31408;45.468;9.124;2023-11-19T08:24:30;13.70;;;6.25;;
45694;SDS011;31408;45.468;9.124;2023-11-19T08:26:55;16.00;;;5.70;;
45694;SDS011;31408;45.468;9.124;2023-11-19T08:29:21;21.15;;;5.88;;
45694;SDS011;31408;45.468;9.124;2023-11-19T08:31:46;12.18;;;5.63;;
45694;SDS011;31408;45.468;9.124;2023-11-19T08:34:12;8.27;;;4.68;;
45694;SDS011;31408;45.468;9.124;2023-11-19T08:36:40;15.32;;;5.72;;
45694;SDS011;31408;45.468;9.124;2023-11-19T08:39:05;12.23;;;5.63;;
45694;SDS011;31408;45.468;9.124;2023-11-19T08:41:31;10.07;;;5.75;;
45694;SDS011;31408;45.468;9.124;2023-11-19T08:43:56;11.68;;;4.97;;
45694;SDS011;31408;45.468;9.124;2023-11-19T08:46:21;10.55;;;5.35;;
45694;SDS011;31408;45.468;9.124;2023-11-19T08:48:47;10.35;;;5.03;;
45694;SDS011;31408;45.468;9.124;2023-11-19T08:51:12;10.02;;;5.00;;
45694;SDS011;31408;45.468;9.124;2023-11-19T08:53:37;8.25;;;4.70;;
45694;SDS011;31408;45.468;9.124;2023-11-19T08:56:03;9.05;;;5.55;;
45694;SDS011;31408;45.468;9.124;2023-11-19T08:58:28;11.73;;;4.95;;
45694;SDS011;31408;45.468;9.124;2023-11-19T09:00:54;13.15;;;6.40;;
45694;SDS011;31408;45.468;9.124;2023-11-19T09:03:19;11.32;;;5.97;;
45694;SDS011;31408;45.468;9.124;2023-11-19T09:05:45;12.20;;;4.82;;
45694;SDS011;31408;45.468;9.124;2023-11-19T09:08:10;11.40;;;5.03;;
45694;SDS011;31408;45.468;9.124;2023-11-19T09:10:40;15.98;;;5.45;;
45694;SDS011;31408;45.468;9.124;2023-11-19T09:13:05;12.82;;;4.75;;
45694;SDS011;31408;45.468;9.124;2023-11-19T09:15:30;13.20;;;5.88;;
45694;SDS011;31408;45.468;9.124;2023-11-19T09:17:56;9.90;;;5.18;;
45694;SDS011;31408;45.468;9.124;2023-11-19T09:20:21;12.32;;;6.30;;
45694;SDS011;31408;45.468;9.124;2023-11-19T09:22:46;13.57;;;6.72;;
45694;SDS011;31408;45.468;9.124;2023-11-19T09:25:12;9.13;;;5.20;;
45694;SDS011;31408;45.468;9.124;2023-11-19T09:27:41;17.27;;;6.10;;
45694;SDS011;31408;45.468;9.124;2023-11-19T09:30:07;11.15;;;5.63;;
45694;SDS011;31408;45.468;9.124;2023-11-19T09:32:32;10.40;;;5.38;;
45694;SDS011;31408;45.468;9.124;2023-11-19T09:34:58;13.45;;;6.22;;
45694;SDS011;31408;45.468;9.124;2023-11-19T09:37:23;18.90;;;6.55;;
45694;SDS011;31408;45.468;9.124;2023-11-19T09:39:48;12.23;;;6.32;;
45694;SDS011;31408;45.468;9.124;2023-11-19T09:42:14;14.80;;;6.93;;
45694;SDS011;31408;45.468;9.124;2023-11-19T09:44:39;10.35;;;6.40;;
45694;SDS011;31408;45.468;9.124;2023-11-19T09:47:06;13.52;;;6.28;;
45694;SDS011;31408;45.468;9.124;2023-11-19T09:49:32;12.52;;;6.35;;
45694;SDS011;31408;45.468;9.124;2023-11-19T09:51:58;13.02;;;6.40;;
45694;SDS011;31408;45.468;9.124;2023-11-19T09:54:23;15.73;;;7.38;;
45694;SDS011;31408;45.468;9.124;2023-11-19T09:56:49;14.23;;;6.85;;
45694;SDS011;31408;45.468;9.124;2023-11-19T09:59:14;12.75;;;6.50;;
45694;SDS011;31408;45.468;9.124;2023-11-19T10:01:40;14.38;;;7.18;;
45694;SDS011;31408;45.468;9.124;2023-11-19T10:04:06;13.52;;;6.40;;
45694;SDS011;31408;45.468;9.124;2023-11-19T10:06:32;16.27;;;7.13;;
45694;SDS011;31408;45.468;9.124;2023-11-19T10:08:57;17.02;;;7.68;;
45694;SDS011;31408;45.468;9.124;2023-11-19T10:11:23;14.95;;;7.38;;
45694;SDS011;31408;45.468;9.124;2023-11-19T10:13:48;17.80;;;8.82;;
45694;SDS011;31408;45.468;9.124;2023-11-19T10:16:14;14.65;;;7.53;;
45694;SDS011;31408;45.468;9.124;2023-11-19T10:18:46;16.48;;;7.32;;
45694;SDS011;31408;45.468;9.124;2023-11-19T10:21:12;13.88;;;6.45;;
45694;SDS011;31408;45.468;9.124;2023-11-19T10:23:51;14.60;;;6.95;;
45694;SDS011;31408;45.468;9.124;2023-11-19T10:26:17;13.73;;;7.40;;
45694;SDS011;31408;45.468;9.124;2023-11-19T10:28:43;16.75;;;8.20;;
45694;SDS011;31408;45.468;9.124;2023-11-19T10:31:11;21.30;;;9.27;;
45694;SDS011;31408;45.468;9.124;2023-11-19T10:33:38;19.55;;;8.50;;
45694;SDS011;31408;45.468;9.124;2023-11-19T10:36:03;14.98;;;7.90;;
45694;SDS011;31408;45.468;9.124;2023-11-19T10:38:29;15.88;;;8.32;;
45694;SDS011;31408;45.468;9.124;2023-11-19T10:40:54;18.55;;;8.50;;
45694;SDS011;31408;45.468;9.124;2023-11-19T10:43:20;17.00;;;7.72;;
45694;SDS011;31408;45.468;9.124;2023-11-19T10:45:48;16.90;;;8.43;;
45694;SDS011;31408;45.468;9.124;2023-11-19T10:48:13;18.45;;;9.02;;
45694;SDS011;31408;45.468;9.124;2023-11-19T10:50:40;17.80;;;9.43;;
45694;SDS011;31408;45.468;9.124;2023-11-19T10:53:05;18.08;;;8.82;;
45694;SDS011;31408;45.468;9.124;2023-11-19T10:55:35;17.77;;;8.43;;
45694;SDS011;31408;45.468;9.124;2023-11-19T10:58:01;14.90;;;8.27;;
45694;SDS011;31408;45.468;9.124;2023-11-19T11:00:30;14.57;;;7.80;;
45694;SDS011;31408;45.468;9.124;2023-11-19T11:03:01;15.52;;;8.85;;
45694;SDS011;31408;45.468;9.124;2023-11-19T11:05:28;19.63;;;8.98;;
45694;SDS011;31408;45.468;9.124;2023-11-19T11:07:55;19.83;;;9.23;;
45694;SDS011;31408;45.468;9.124;2023-11-19T11:10:22;18.35;;;8.50;;
45694;SDS011;31408;45.468;9.124;2023-11-19T11:12:51;15.90;;;8.38;;
45694;SDS011;31408;45.468;9.124;2023-11-19T11:15:21;17.80;;;8.35;;
45694;SDS011;31408;45.468;9.124;2023-11-19T11:17:46;16.88;;;8.45;;
45694;SDS011;31408;45.468;9.124;2023-11-19T11:20:12;17.05;;;8.35;;
45694;SDS011;31408;45.468;9.124;2023-11-19T11:22:42;17.73;;;8.45;;
45694;SDS011;31408;45.468;9.124;2023-11-19T11:25:16;15.25;;;8.15;;
45694;SDS011;31408;45.468;9.124;2023-11-19T11:37:49;16.73;;;9.13;;
45694;SDS011;31408;45.468;9.124;2023-11-19T11:40:16;15.07;;;7.97;;
45694;SDS011;31408;45.468;9.124;2023-11-19T11:42:43;19.55;;;8.82;;
45694;SDS011;31408;45.468;9.124;2023-11-19T11:45:09;20.98;;;8.63;;
45694;SDS011;31408;45.468;9.124;2023-11-19T11:50:07;15.88;;;8.25;;
45694;SDS011;31408;45.468;9.124;2023-11-19T11:52:33;17.27;;;8.85;;
45694;SDS011;31408;45.468;9.124;2023-11-19T11:55:03;17.27;;;9.60;;
45694;SDS011;31408;45.468;9.124;2023-11-19T11:57:32;15.13;;;7.68;;
45694;SDS011;31408;45.468;9.124;2023-11-19T12:00:02;13.18;;;7.07;;
45694;SDS011;31408;45.468;9.124;2023-11-19T12:02:30;22.50;;;9.18;;
45694;SDS011;31408;45.468;9.124;2023-11-19T12:04:55;14.05;;;7.05;;
45694;SDS011;31408;45.468;9.124;2023-11-19T12:07:22;18.38;;;7.95;;
45694;SDS011;31408;45.468;9.124;2023-11-19T12:09:52;15.18;;;7.60;;
45694;SDS011;31408;45.468;9.124;2023-11-19T12:12:21;13.55;;;7.32;;
45694;SDS011;31408;45.468;9.124;2023-11-19T12:15:03;15.18;;;7.78;;
45694;SDS011;31408;45.468;9.124;2023-11-19T12:19:57;15.68;;;7.47;;
45694;SDS011;31408;45.468;9.124;2023-11-19T12:22:24;15.68;;;7.85;;
45694;SDS011;31408;45.468;9.124;2023-11-19T12:24:50;15.38;;;6.22;;
45694;SDS011;31408;45.468;9.124;2023-11-19T12:27:16;13.68;;;6.93;;
45694;SDS011;31408;45.468;9.124;2023-11-19T12:29:43;11.25;;;6.00;;
45694;SDS011;31408;45.468;9.124;2023-11-19T12:32:11;11.32;;;6.18;;
45694;SDS011;31408;45.468;9.124;2023-11-19T12:34:36;14.07;;;6.88;;
45694;SDS011;31408;45.468;9.124;2023-11-19T12:37:05;15.85;;;7.47;;
45694;SDS011;31408;45.468;9.124;2023-11-19T12:39:31;14.73;;;6.78;;
45694;SDS011;31408;45.468;9.124;2023-11-19T12:41:56;16.17;;;6.82;;
45694;SDS011;31408;45.468;9.124;2023-11-19T12:44:24;13.43;;;6.18;;
45694;SDS011;31408;45.468;9.124;2023-11-19T12:47:00;12.63;;;6.65;;
45694;SDS011;31408;45.468;9.124;2023-11-19T12:49:26;14.02;;;6.93;;
45694;SDS011;31408;45.468;9.124;2023-11-19T12:51:51;12.23;;;7.05;;
45694;SDS011;31408;45.468;9.124;2023-11-19T12:54:17;14.85;;;7.82;;
45694;SDS011;31408;45.468;9.124;2023-11-19T12:56:53;14.77;;;7.40;;
45694;SDS011;31408;45.468;9.124;2023-11-19T12:59:18;13.15;;;6.43;;
45694;SDS011;31408;45.468;9.124;2023-11-19T13:01:59;13.85;;;6.82;;
45694;SDS011;31408;45.468;9.124;2023-11-19T13:04:31;15.07;;;6.38;;
45694;SDS011;31408;45.468;9.124;2023-11-19T13:06:57;11.38;;;6.32;;
45694;SDS011;31408;45.468;9.124;2023-11-19T13:09:23;14.23;;;7.03;;
45694;SDS011;31408;45.468;9.124;2023-11-19T13:11:52;10.30;;;5.75;;
45694;SDS011;31408;45.468;9.124;2023-11-19T13:14:17;11.60;;;5.95;;
45694;SDS011;31408;45.468;9.124;2023-11-19T13:16:44;10.73;;;6.00;;
45694;SDS011;31408;45.468;9.124;2023-11-19T13:19:11;13.10;;;6.72;;
45694;SDS011;31408;45.468;9.124;2023-11-19T13:21:37;18.48;;;7.15;;
45694;SDS011;31408;45.468;9.124;2023-11-19T13:24:03;12.70;;;6.43;;
45694;SDS011;31408;45.468;9.124;2023-11-19T13:26:28;12.18;;;6.63;;
45694;SDS011;31408;45.468;9.124;2023-11-19T13:28:54;13.75;;;6.18;;
45694;SDS011;31408;45.468;9.124;2023-11-19T13:31:19;11.15;;;5.90;;
45694;SDS011;31408;45.468;9.124;2023-11-19T13:33:44;12.63;;;6.25;;
45694;SDS011;31408;45.468;9.124;2023-11-19T13:36:10;11.90;;;6.00;;
45694;SDS011;31408;45.468;9.124;2023-11-19T13:38:36;13.00;;;6.07;;
45694;SDS011;31408;45.468;9.124;2023-11-19T13:41:09;13.23;;;6.78;;
45694;SDS011;31408;45.468;9.124;2023-11-19T13:43:36;11.63;;;5.65;;
45694;SDS011;31408;45.468;9.124;2023-11-19T13:46:02;15.27;;;6.95;;
45694;SDS011;31408;45.468;9.124;2023-11-19T13:48:27;11.43;;;6.15;;
45694;SDS011;31408;45.468;9.124;2023-11-19T13:50:54;13.50;;;6.65;;
45694;SDS011;31408;45.468;9.124;2023-11-19T13:53:19;12.13;;;5.65;;
45694;SDS011;31408;45.468;9.124;2023-11-19T13:55:45;14.40;;;6.57;;
45694;SDS011;31408;45.468;9.124;2023-11-19T13:58:10;14.32;;;6.93;;
45694;SDS011;31408;45.468;9.124;2023-11-19T14:00:36;17.05;;;7.13;;
45694;SDS011;31408;45.468;9.124;2023-11-19T14:03:01;11.57;;;6.10;;
45694;SDS011;31408;45.468;9.124;2023-11-19T14:05:27;12.43;;;6.05;;
45694;SDS011;31408;45.468;9.124;2023-11-19T14:07:52;14.05;;;6.68;;
45694;SDS011;31408;45.468;9.124;2023-11-19T14:10:19;11.10;;;6.53;;
45694;SDS011;31408;45.468;9.124;2023-11-19T14:12:44;16.70;;;7.35;;
45694;SDS011;31408;45.468;9.124;2023-11-19T14:15:10;15.77;;;7.38;;
45694;SDS011;31408;45.468;9.124;2023-11-19T14:17:37;13.45;;;6.47;;
45694;SDS011;31408;45.468;9.124;2023-11-19T14:20:02;13.32;;;7.93;;
45694;SDS011;31408;45.468;9.124;2023-11-19T14:22:42;14.98;;;6.38;;
45694;SDS011;31408;45.468;9.124;2023-11-19T14:25:08;14.80;;;7.47;;
45694;SDS011;31408;45.468;9.124;2023-11-19T14:27:35;16.77;;;7.57;;
45694;SDS011;31408;45.468;9.124;2023-11-19T14:30:01;14.63;;;7.55;;
45694;SDS011;31408;45.468;9.124;2023-11-19T14:32:26;17.52;;;7.35;;
45694;SDS011;31408;45.468;9.124;2023-11-19T14:34:52;16.80;;;7.43;;
45694;SDS011;31408;45.468;9.124;2023-11-19T14:37:17;22.90;;;10.02;;
45694;SDS011;31408;45.468;9.124;2023-11-19T14:39:42;13.88;;;6.90;;
45694;SDS011;31408;45.468;9.124;2023-11-19T14:42:09;15.88;;;8.10;;